Time;durP1;ratioP1;P1;durP2;ratioP2;P2;SDS_P1;SDS_P2;PMS_P1;PMS_P2;Temp;Humidity;BMP_temperature;BMP_pressure;BME280_temperature;BME280_humidity;BME280_pressure;Samples;Min_cycle;Max_cycle;Signal;HPM_P1;HPM_P2
2023/11/15 00:00:01;;;;;;;3.40;1.15;;;;;;;;;;4880322;29;20041;-92
2023/11/15 00:02:28;;;;;;;0.60;0.60;;;;;;;;;;4868643;29;20030;-92
2023/11/15 00:04:54;;;;;;;;;;;9.70;99.90;;;;;;4880891;29;20545;-93
2023/11/15 00:07:20;;;;;;;1.75;1.00;;;;;;;;;;4880634;29;19912;-93
2023/11/15 00:09:46;;;;;;;1.95;0.90;;;;;;;;;;4880488;29;20096;-92
2023/11/15 00:12:12;;;;;;;0.85;0.70;;;;;;;;;;4874866;29;20562;-92
2023/11/15 00:14:38;;;;;;;1.25;0.70;;;;;;;;;;4879153;29;20254;-92
2023/11/15 00:17:05;;;;;;;1.40;0.80;;;;;;;;;;4879713;29;20029;-92
2023/11/15 00:19:31;;;;;;;1.67;0.88;;;;;;;;;;4880450;29;20041;-93
2023/11/15 00:21:58;;;;;;;1.08;0.90;;;9.30;99.90;;;;;;4879129;29;20216;-92
2023/11/15 00:24:24;;;;;;;2.45;1.10;;;;;;;;;;4864073;29;20060;-92
2023/11/15 00:26:50;;;;;;;0.75;0.70;;;;;;;;;;4879993;29;20031;-92
2023/11/15 00:29:17;;;;;;;5.25;1.05;;;;;;;;;;4880241;29;20111;-92
2023/11/15 00:31:43;;;;;;;5.67;1.30;;;;;;;;;;4879688;29;20040;-93
2023/11/15 00:34:10;;;;;;;2.55;0.80;;;;;;;;;;4879160;29;20039;-93
2023/11/15 00:36:39;;;;;;;8.02;1.08;;;8.60;99.90;;;;;;4873770;29;20036;-92
2023/11/15 00:39:08;;;;;;;2.22;1.27;;;;;;;;;;4879675;29;20039;-93
2023/11/15 00:41:35;;;;;;;10.52;1.80;;;;;;;;;;4879922;29;20054;-92
2023/11/15 00:44:03;;;;;;;0.85;0.57;;;;;;;;;;4878991;29;20049;-93
2023/11/15 00:46:29;;;;;;;1.45;0.85;;;;;;;;;;4879812;29;20048;-92
2023/11/15 00:48:54;;;;;;;0.90;0.63;;;9.10;99.90;;;;;;4880079;29;20029;-92
2023/11/15 00:51:20;;;;;;;6.00;0.70;;;;;;;;;;4874514;29;20059;-92
2023/11/15 00:53:46;;;;;;;0.80;0.60;;;;;;;;;;4879607;29;20029;-92
2023/11/15 00:56:12;;;;;;;0.90;0.73;;;;;;;;;;4867528;29;20024;-92
2023/11/15 00:58:39;;;;;;;2.67;0.88;;;;;;;;;;4863145;29;20029;-92
2023/11/15 01:01:08;;;;;;;0.75;0.50;;;9.40;99.90;;;;;;4879312;29;20021;-93
2023/11/15 01:03:37;;;;;;;1.45;0.98;;;9.40;99.90;;;;;;4878345;29;20041;-94
2023/11/15 01:06:02;;;;;;;1.38;0.88;;;9.40;99.90;;;;;;4862433;29;20025;-92
2023/11/15 01:08:29;;;;;;;7.05;2.15;;;;;;;;;;4869099;29;20056;-93
2023/11/15 01:10:55;;;;;;;8.32;1.25;;;;;;;;;;4868527;29;20021;-91
2023/11/15 01:13:21;;;;;;;0.80;0.80;;;8.50;99.90;;;;;;4879805;29;20060;-91
2023/11/15 01:15:48;;;;;;;1.95;1.02;;;;;;;;;;4862408;29;20057;-92
2023/11/15 01:18:14;;;;;;;1.35;0.93;;;;;;;;;;4879629;29;20037;-93
2023/11/15 01:20:42;;;;;;;3.38;1.20;;;8.70;99.90;;;;;;4862202;29;20025;-93
2023/11/15 01:23:09;;;;;;;11.30;1.33;;;;;;;;;;4863567;29;20503;-92
2023/11/15 01:25:35;;;;;;;5.28;0.90;;;;;;;;;;4878036;29;20507;-90
2023/11/15 01:28:02;;;;;;;2.47;1.20;;;;;;;;;;4879271;29;20127;-92
2023/11/15 01:30:28;;;;;;;2.45;1.05;;;;;;;;;;4878646;29;20048;-93
2023/11/15 01:32:57;;;;;;;5.13;1.30;;;8.60;99.90;;;;;;4878704;29;20044;-92
2023/11/15 01:35:23;;;;;;;4.13;0.90;;;;;;;;;;4878909;29;20025;-91
2023/11/15 01:37:51;;;;;;;0.80;0.80;;;;;;;;;;4878148;29;20036;-92
2023/11/15 01:40:19;;;;;;;;;;;8.70;99.90;;;;;;4880020;29;20029;-93
2023/11/15 01:42:46;;;;;;;3.00;0.80;;;;;;;;;;4878956;29;19915;-91
2023/11/15 01:45:12;;;;;;;10.60;1.17;;;;;;;;;;4878076;29;20029;-92
2023/11/15 01:47:38;;;;;;;1.70;0.90;;;;;;;;;;4879048;29;20081;-93
2023/11/15 01:50:09;;;;;;;8.27;0.90;;;8.60;99.90;;;;;;4862167;29;20045;-92
2023/11/15 01:52:37;;;;;;;0.82;0.45;;;8.60;99.90;;;;;;4878678;29;20179;-92
2023/11/15 01:55:06;;;;;;;1.85;1.23;;;8.60;99.90;;;;;;4878535;29;20054;-91
2023/11/15 01:57:32;;;;;;;1.70;0.77;;;;;;;;;;4878011;29;20509;-91
2023/11/15 01:59:59;;;;;;;6.32;1.00;;;8.70;99.90;;;;;;4877562;29;20044;-90
2023/11/15 02:02:25;;;;;;;0.40;0.40;;;;;;;;;;4876413;29;20044;-91
2023/11/15 02:04:51;;;;;;;5.47;1.33;;;;;;;;;;4878302;29;20032;-91
2023/11/15 02:07:18;;;;;;;4.65;0.80;;;;;;;;;;4878316;29;20021;-90
2023/11/15 02:09:44;;;;;;;0.75;0.75;;;;;;;;;;4878253;29;20395;-91
2023/11/15 02:12:10;;;;;;;2.95;0.95;;;;;;;;;;4878051;29;20120;-92
2023/11/15 02:14:37;;;;;;;3.08;1.92;;;;;;;;;;4877952;29;20461;-93
2023/11/15 02:17:05;;;;;;;1.98;1.00;;;9.40;99.90;;;;;;4877687;29;20097;-92
2023/11/15 02:19:30;;;;;;;3.55;0.60;;;9.50;99.90;;;;;;4871708;29;20037;-92
2023/11/15 02:21:56;;;;;;;3.50;0.77;;;;;;;;;;4877266;29;20491;-93
2023/11/15 02:24:23;;;;;;;2.08;0.80;;;;;;;;;;4876829;29;20041;-91
2023/11/15 02:26:49;;;;;;;1.05;0.65;;;;;;;;;;4878117;29;20088;-91
2023/11/15 02:29:15;;;;;;;5.55;1.42;;;;;;;;;;4876637;29;20057;-91
2023/11/15 02:31:41;;;;;;;2.03;1.83;;;;;;;;;;4876909;29;20041;-91
2023/11/15 02:34:07;;;;;;;3.25;0.57;;;;;;;;;;4877548;29;20185;-91
2023/11/15 02:36:33;;;;;;;3.13;0.90;;;;;;;;;;4879390;29;20029;-92
2023/11/15 02:38:59;;;;;;;4.30;1.40;;;;;;;;;;4882462;29;20036;-92
2023/11/15 02:41:25;;;;;;;3.58;0.70;;;;;;;;;;4882107;29;20025;-90
2023/11/15 02:43:51;;;;;;;7.43;1.10;;;;;;;;;;4880762;29;20029;-91
2023/11/15 02:46:22;;;;;;;4.45;1.27;;;9.00;99.90;;;;;;4882654;29;20029;-92
2023/11/15 02:48:48;;;;;;;1.33;0.85;;;;;;;;;;4865071;29;20406;-91
2023/11/15 02:51:14;;;;;;;2.60;1.10;;;9.10;99.90;;;;;;4881748;29;20043;-92
2023/11/15 02:53:39;;;;;;;8.10;0.93;;;9.00;99.90;;;;;;4881635;29;20422;-92
2023/11/15 02:56:05;;;;;;;9.85;1.65;;;;;;;;;;4864686;29;20053;-91
2023/11/15 02:58:31;;;;;;;4.05;1.13;;;;;;;;;;4880852;29;20029;-91
2023/11/15 03:00:57;;;;;;;4.95;1.08;;;;;;;;;;4881557;29;20029;-92
2023/11/15 03:03:23;;;;;;;3.72;1.10;;;;;;;;;;4881582;29;20043;-91
2023/11/15 03:05:49;;;;;;;1.25;1.15;;;;;;;;;;4881382;29;20029;-91
2023/11/15 03:08:19;;;;;;;2.33;1.00;;;;;;;;;;4864507;29;20044;-93
2023/11/15 03:10:46;;;;;;;10.57;1.60;;;;;;;;;;4880843;29;20025;-91
2023/11/15 03:13:12;;;;;;;6.32;1.98;;;;;;;;;;4881320;29;20406;-92
2023/11/15 03:15:37;;;;;;;4.60;1.42;;;9.10;99.90;;;;;;4881146;29;20442;-91
2023/11/15 03:18:03;;;;;;;6.72;1.08;;;;;;;;;;4873436;29;20081;-91
2023/11/15 03:20:32;;;;;;;3.60;2.13;;;;;;;;;;4880402;29;20025;-92
2023/11/15 03:22:58;;;;;;;4.90;2.53;;;;;;;;;;4881578;29;20036;-91
2023/11/15 03:25:24;;;;;;;3.72;1.27;;;;;;;;;;4880643;29;20025;-91
2023/11/15 03:27:51;;;;;;;7.47;1.85;;;;;;;;;;4880435;29;20029;-92
2023/11/15 03:30:17;;;;;;;10.63;1.95;;;8.90;99.90;;;;;;4880862;29;20456;-92
2023/11/15 03:32:45;;;;;;;10.50;1.67;;;8.70;99.90;;;;;;4881002;29;20025;-91
2023/11/15 03:35:11;;;;;;;1.80;1.10;;;8.80;99.90;;;;;;4880471;29;20033;-91
2023/11/15 03:37:37;;;;;;;3.72;1.23;;;;;;;;;;4880803;29;20067;-92
2023/11/15 03:40:08;;;;;;;1.58;1.23;;;8.20;99.90;;;;;;4880425;29;20041;-91
2023/11/15 03:42:34;;;;;;;7.75;1.10;;;;;;;;;;4880494;29;20052;-92
2023/11/15 03:45:00;;;;;;;0.90;0.70;;;;;;;;;;4880568;29;20043;-91
2023/11/15 03:47:26;;;;;;;0.75;0.65;;;;;;;;;;4880892;29;20024;-91
2023/11/15 03:49:52;;;;;;;3.42;1.27;;;;;;;;;;4862928;29;20080;-92
2023/11/15 03:52:18;;;;;;;2.17;1.00;;;;;;;;;;4880424;29;20088;-92
2023/11/15 03:54:44;;;;;;;1.55;0.80;;;;;;;;;;4862801;29;20474;-93
2023/11/15 03:57:11;;;;;;;4.03;0.98;;;;;;;;;;4880640;29;20116;-91
2023/11/15 03:59:37;;;;;;;1.88;0.77;;;;;;;;;;4880339;29;20526;-91
2023/11/15 04:02:03;;;;;;;2.05;1.15;;;;;;;;;;4863538;29;20026;-91
2023/11/15 04:04:30;;;;;;;3.13;1.27;;;;;;;;;;4879859;29;20507;-92
2023/11/15 04:06:56;;;;;;;2.70;0.80;;;;;;;;;;4880977;29;20048;-92
2023/11/15 04:09:22;;;;;;;3.22;1.27;;;;;;;;;;4879862;29;20029;-91
2023/11/15 04:11:48;;;;;;;1.15;0.77;;;;;;;;;;4879934;29;20546;-92
2023/11/15 04:14:16;;;;;;;0.80;0.80;;;;;;;;;;4874171;29;20158;-91
2023/11/15 04:16:46;;;;;;;3.67;0.80;;;8.00;99.90;;;;;;4849606;29;20491;-91
2023/11/15 04:19:12;;;;;;;10.60;0.85;;;;;;;;;;4878744;29;20040;-91
2023/11/15 04:21:37;;;;;;;1.02;0.90;;;;;;;;;;4877758;29;20108;-92
2023/11/15 04:24:03;;;;;;;0.77;0.73;;;;;;;;;;4880605;29;20043;-92
2023/11/15 04:26:30;;;;;;;0.82;0.80;;;;;;;;;;4862586;29;20028;-91
2023/11/15 04:28:56;;;;;;;2.88;0.85;;;;;;;;;;4879358;29;20040;-92
2023/11/15 04:31:24;;;;;;;2.50;0.80;;;;;;;;;;4878641;29;20049;-93
2023/11/15 04:33:51;;;;;;;6.90;1.08;;;;;;;;;;4880096;29;20033;-92
2023/11/15 04:36:19;;;;;;;1.02;0.95;;;;;;;;;;4879664;29;20029;-91
2023/11/15 04:38:47;;;;;;;1.13;0.73;;;;;;;;;;4880247;29;20037;-90
2023/11/15 04:41:13;;;;;;;0.98;0.77;;;;;;;;;;4878686;29;20040;-91
2023/11/15 04:43:39;;;;;;;4.50;1.23;;;;;;;;;;4879000;29;20036;-91
2023/11/15 04:46:06;;;;;;;1.02;0.73;;;7.30;99.90;;;;;;4879217;29;20041;-92
2023/11/15 04:48:32;;;;;;;1.17;1.05;;;;;;;;;;4880128;29;20274;-92
2023/11/15 04:51:00;;;;;;;5.20;1.05;;;;;;;;;;4861508;29;20751;-93
2023/11/15 04:53:26;;;;;;;0.63;0.63;;;;;;;;;;4879802;29;20116;-91
2023/11/15 04:55:52;;;;;;;4.85;0.75;;;;;;;;;;4879175;29;20048;-91
2023/11/15 04:58:18;;;;;;;1.50;0.82;;;;;;;;;;4878526;29;20112;-92
2023/11/15 05:00:44;;;;;;;2.60;0.98;;;;;;;;;;4878087;29;20033;-92
2023/11/15 05:03:10;;;;;;;2.88;1.17;;;;;;;;;;4880045;29;20072;-91
2023/11/15 05:05:36;;;;;;;1.10;0.90;;;;;;;;;;4878916;29;20119;-91
2023/11/15 05:08:03;;;;;;;6.65;1.17;;;9.20;99.90;;;;;;4879165;29;20025;-91
2023/11/15 05:10:29;;;;;;;2.97;0.75;;;;;;;;;;4878174;29;20050;-91
2023/11/15 05:12:55;;;;;;;3.85;1.00;;;;;;;;;;4879225;29;20040;-91
2023/11/15 05:15:21;;;;;;;1.90;1.20;;;;;;;;;;4865954;29;20044;-91
2023/11/15 05:17:47;;;;;;;8.57;1.35;;;;;;;;;;4879406;29;20037;-92
2023/11/15 05:20:13;;;;;;;4.10;1.35;;;;;;;;;;4878163;29;20028;-90
2023/11/15 05:22:39;;;;;;;5.13;2.22;;;;;;;;;;4878335;29;20089;-92
2023/11/15 05:25:05;;;;;;;5.53;1.83;;;;;;;;;;4878379;29;20056;-91
2023/11/15 05:27:32;;;;;;;5.78;1.60;;;;;;;;;;4878863;29;20049;-91
2023/11/15 05:29:58;;;;;;;1.90;1.08;;;;;;;;;;4878184;29;20132;-91
2023/11/15 05:32:24;;;;;;;2.45;1.60;;;;;;;;;;4878659;29;20033;-91
2023/11/15 05:34:50;;;;;;;3.00;1.20;;;;;;;;;;4878153;29;20037;-92
2023/11/15 05:37:16;;;;;;;6.65;0.88;;;;;;;;;;4878644;29;20376;-92
2023/11/15 05:39:43;;;;;;;3.50;1.17;;;;;;;;;;4877004;29;20025;-91
2023/11/15 05:42:09;;;;;;;5.93;1.65;;;;;;;;;;4869031;29;20036;-91
2023/11/15 05:44:35;;;;;;;7.65;1.15;;;;;;;;;;4877994;29;20097;-91
2023/11/15 05:47:02;;;;;;;2.75;0.80;;;;;;;;;;4862573;29;20107;-92
2023/11/15 05:49:30;;;;;;;4.18;1.75;;;;;;;;;;4878201;29;20033;-91
2023/11/15 05:51:56;;;;;;;4.00;1.17;;;;;;;;;;4878951;29;20451;-91
2023/11/15 05:54:22;;;;;;;1.98;0.90;;;;;;;;;;4877864;29;20013;-91
2023/11/15 05:56:48;;;;;;;1.90;0.93;;;;;;;;;;4878710;29;20025;-94
2023/11/15 05:59:14;;;;;;;1.95;1.45;;;;;;;;;;4877896;29;20805;-91
2023/11/15 06:01:41;;;;;;;4.50;1.23;;;;;;;;;;4861527;29;20041;-92
2023/11/15 06:04:10;;;;;;;1.73;1.25;;;;;;;;;;4875088;29;20127;-92
2023/11/15 06:06:36;;;;;;;4.55;1.40;;;;;;;;;;4878126;29;20074;-92
2023/11/15 06:09:04;;;;;;;1.63;1.10;;;8.80;99.90;;;;;;4875572;29;20052;-91
2023/11/15 06:11:30;;;;;;;7.10;1.02;;;;;;;;;;4877828;29;20033;-92
2023/11/15 06:13:56;;;;;;;7.60;1.65;;;;;;;;;;4874831;29;20491;-92
2023/11/15 06:16:24;;;;;;;4.43;0.90;;;;;;;;;;4872174;29;20033;-91
2023/11/15 06:18:51;;;;;;;;;;;8.40;99.90;;;;;;4875370;29;20412;-91
2023/11/15 06:21:18;;;;;;;2.72;1.60;;;;;;;;;;4875914;29;19908;-92
2023/11/15 06:23:44;;;;;;;8.30;1.65;;;;;;;;;;4878239;29;20101;-92
2023/11/15 06:26:11;;;;;;;5.05;2.08;;;;;;;;;;4879586;29;20270;-86
2023/11/15 06:28:37;;;;;;;7.63;1.43;;;;;;;;;;4871443;29;20064;-89
2023/11/15 06:31:04;;;;;;;1.80;1.10;;;7.80;99.90;;;;;;4874982;29;20647;-89
2023/11/15 06:33:31;;;;;;;3.53;1.17;;;;;;;;;;4876122;29;20041;-89
2023/11/15 06:35:57;;;;;;;7.03;1.77;;;;;;;;;;4854386;29;20076;-89
2023/11/15 06:38:23;;;;;;;2.30;1.17;;;;;;;;;;4858777;29;20077;-89
2023/11/15 06:40:49;;;;;;;4.53;1.65;;;;;;;;;;4872976;29;20033;-90
2023/11/15 06:43:15;;;;;;;3.95;2.20;;;;;;;;;;4873582;29;20031;-89
2023/11/15 06:45:42;;;;;;;1.90;1.30;;;;;;;;;;4875609;29;20101;-88
2023/11/15 06:48:08;;;;;;;3.63;1.38;;;;;;;;;;4877578;29;20108;-88
2023/11/15 06:50:34;;;;;;;3.05;1.55;;;;;;;;;;4859472;29;20282;-89
2023/11/15 06:53:00;;;;;;;8.60;2.83;;;;;;;;;;4878171;29;20498;-88
2023/11/15 06:55:26;;;;;;;5.72;2.03;;;;;;;;;;4877179;29;20089;-79
2023/11/15 06:57:52;;;;;;;7.90;2.58;;;;;;;;;;4873204;29;20025;-79
2023/11/15 07:00:19;;;;;;;2.47;1.90;;;;;;;;;;4873954;29;20117;-79
2023/11/15 07:02:46;;;;;;;4.68;3.55;;;8.00;99.90;;;;;;4873906;29;20057;-79
2023/11/15 07:05:13;;;;;;;12.57;3.33;;;8.10;99.90;;;;;;4873154;29;20407;-79
2023/11/15 07:07:39;;;;;;;11.65;4.47;;;;;;;;;;4846223;29;20021;-79
2023/11/15 07:10:06;;;;;;;2.73;2.50;;;8.00;99.90;;;;;;4874305;29;20129;-79
2023/11/15 07:12:35;;;;;;;9.07;2.80;;;;;;;;;;4872165;29;20570;-79
2023/11/15 07:15:04;;;;;;;2.38;2.03;;;;;;;;;;4874009;29;20590;-79
2023/11/15 07:17:31;;;;;;;4.57;2.28;;;;;;;;;;4874313;29;20037;-80
2023/11/15 07:20:14;;;;;;;;;;;8.30;99.90;;;;;;4864733;29;20521;-90
2023/11/15 07:22:40;;;;;;;5.47;1.52;;;;;;;;;;4872002;29;19915;-88
2023/11/15 07:25:12;;;;;;;8.70;4.93;;;;;;;;;;4875607;29;20052;-85
2023/11/15 07:27:38;;;;;;;4.95;3.45;;;;;;;;;;4853049;29;20037;-85
2023/11/15 07:30:08;;;;;;;7.30;3.47;;;;;;;;;;4857316;29;20053;-86
2023/11/15 07:32:34;;;;;;;6.65;2.95;;;;;;;;;;4874016;29;20181;-83
2023/11/15 07:35:00;;;;;;;14.68;6.32;;;;;;;;;;4874397;29;20040;-85
2023/11/15 07:37:26;;;;;;;18.48;6.10;;;;;;;;;;4875699;29;20033;-83
2023/11/15 07:39:52;;;;;;;21.15;6.50;;;;;;;;;;4872493;29;20037;-86
2023/11/15 07:42:19;;;;;;;17.48;4.70;;;;;;;;;;4868210;29;20744;-84
2023/11/15 07:44:45;;;;;;;5.95;4.18;;;;;;;;;;4875708;29;20551;-84
2023/11/15 07:47:13;;;;;;;12.15;3.85;;;;;;;;;;4873420;29;20025;-83
2023/11/15 07:49:39;;;;;;;8.48;4.03;;;;;;;;;;4874369;29;20032;-84
2023/11/15 07:52:06;;;;;;;10.63;4.15;;;;;;;;;;4853405;29;20044;-81
2023/11/15 07:54:33;;;;;;;8.30;3.45;;;;;;;;;;4874964;29;20049;-84
2023/11/15 07:56:59;;;;;;;7.53;3.70;;;12.60;99.90;;;;;;4873950;29;20052;-84
2023/11/15 07:59:26;;;;;;;11.57;4.57;;;;;;;;;;4872187;29;20124;-84
2023/11/15 08:01:52;;;;;;;16.35;5.68;;;;;;;;;;4870044;29;20215;-84
2023/11/15 08:04:21;;;;;;;13.43;4.45;;;;;;;;;;4857041;29;20047;-83
2023/11/15 08:06:47;;;;;;;9.02;4.50;;;;;;;;;;4872935;29;20021;-80
2023/11/15 08:09:24;;;;;;;10.70;5.05;;;;;;;;;;4874720;29;20066;-81
2023/11/15 08:11:56;;;;;;;16.23;6.93;;;;;;;;;;4869599;29;20029;-81
2023/11/15 08:14:22;;;;;;;7.55;3.72;;;;;;;;;;4857338;29;20068;-81
2023/11/15 08:16:55;;;;;;;7.03;4.23;;;10.60;99.90;;;;;;4871705;29;20029;-81
2023/11/15 08:19:21;;;;;;;10.73;4.10;;;;;;;;;;4874099;29;20100;-83
2023/11/15 08:21:48;;;;;;;5.95;2.53;;;;;;;;;;4868908;29;20432;-81
2023/11/15 08:24:20;;;;;;;8.43;2.78;;;;;;;;;;4874870;29;20048;-81
2023/11/15 08:26:46;;;;;;;8.85;3.33;;;;;;;;;;4873429;29;20026;-81
2023/11/15 08:29:12;;;;;;;7.30;3.53;;;;;;;;;;4870613;29;20029;-79
2023/11/15 08:31:38;;;;;;;6.40;3.33;;;;;;;;;;4868827;29;20057;-81
2023/11/15 08:34:04;;;;;;;5.65;2.72;;;11.40;99.90;;;;;;4872747;29;20052;-84
2023/11/15 08:36:30;;;;;;;11.63;2.95;;;10.90;99.90;;;;;;4858362;29;20397;-87
2023/11/15 08:38:57;;;;;;;6.03;2.28;;;;;;;;;;4874840;29;20048;-83
2023/11/15 08:41:24;;;;;;;;;;;10.80;99.90;;;;;;4865574;29;20028;-83
2023/11/15 08:43:50;;;;;;;9.98;2.63;;;;;;;;;;4871845;29;19963;-81
2023/11/15 08:46:17;;;;;;;5.80;1.77;;;;;;;;;;4873611;29;20121;-81
2023/11/15 08:48:44;;;;;;;5.47;3.15;;;;;;;;;;4873716;29;20081;-82
2023/11/15 08:51:10;;;;;;;8.75;4.10;;;;;;;;;;4869178;29;20044;-85
2023/11/15 08:53:39;;;;;;;7.18;3.17;;;;;;;;;;4874872;29;20033;-82
2023/11/15 08:56:07;;;;;;;5.32;2.63;;;;;;;;;;4874068;29;20036;-82
2023/11/15 08:58:33;;;;;;;5.00;2.47;;;11.60;99.90;;;;;;4871233;29;20049;-83
2023/11/15 09:01:02;;;;;;;7.88;2.63;;;;;;;;;;4868842;29;20045;-83
2023/11/15 09:03:28;;;;;;;2.05;1.85;;;;;;;;;;4874229;29;20064;-82
2023/11/15 09:05:55;;;;;;;2.97;1.88;;;;;;;;;;4873538;29;20029;-83
2023/11/15 09:08:22;;;;;;;2.40;2.15;;;;;;;;;;4871906;29;20644;-83
2023/11/15 09:10:50;;;;;;;7.65;2.97;;;11.70;99.90;;;;;;4868802;29;20691;-83
2023/11/15 09:13:23;;;;;;;8.35;2.83;;;;;;;;;;4872192;29;20585;-84
2023/11/15 09:15:52;;;;;;;11.20;1.80;;;;;;;;;;4855802;29;20414;-84
2023/11/15 09:18:23;;;;;;;4.88;2.33;;;;;;;;;;4856276;29;20039;-84
2023/11/15 09:20:49;;;;;;;5.28;2.45;;;;;;;;;;4866941;29;20170;-84
2023/11/15 09:23:16;;;;;;;5.57;2.08;;;;;;;;;;4874702;29;20168;-84
2023/11/15 09:25:42;;;;;;;5.87;3.37;;;17.70;91.60;;;;;;4872474;29;20499;-85
2023/11/15 09:28:12;;;;;;;10.48;2.65;;;18.10;78.90;;;;;;4872414;29;20055;-85
2023/11/15 09:30:39;;;;;;;5.45;2.50;;;;;;;;;;4869500;29;20056;-85
2023/11/15 09:33:05;;;;;;;8.65;2.15;;;;;;;;;;4872975;29;20036;-83
2023/11/15 09:35:36;;;;;;;4.03;1.75;;;;;;;;;;4873179;29;20035;-84
2023/11/15 09:38:08;;;;;;;5.57;2.25;;;;;;;;;;4857186;29;20068;-82
2023/11/15 09:40:41;;;;;;;3.83;2.95;;;;;;;;;;4863678;29;20041;-83
2023/11/15 09:43:12;;;;;;;9.40;3.60;;;;;;;;;;4855089;29;20093;-83
2023/11/15 09:45:41;;;;;;;5.25;3.38;;;26.70;64.90;;;;;;4855840;29;20060;-83
2023/11/15 09:48:09;;;;;;;5.00;3.47;;;33.50;62.20;;;;;;4873063;29;20093;-83
2023/11/15 09:50:36;;;;;;;3.50;2.55;;;;;;;;;;4867329;29;20044;-84
2023/11/15 09:53:05;;;;;;;8.68;2.38;;;;;;;;;;4873285;29;20088;-84
2023/11/15 09:55:33;;;;;;;3.55;1.92;;;43.10;40.40;;;;;;4871971;29;20037;-85
2023/11/15 09:57:59;;;;;;;6.22;1.65;;;;;;;;;;4871053;29;20507;-84
2023/11/15 10:00:29;;;;;;;5.90;1.47;;;43.20;32.90;;;;;;4868671;29;20093;-84
2023/11/15 10:02:56;;;;;;;19.80;2.10;;;43.30;33.40;;;;;;4871584;29;20502;-84
2023/11/15 10:05:24;;;;;;;;;;;43.30;33.50;;;;;;4873108;29;20106;-84
2023/11/15 10:08:08;;;;;;;5.55;0.90;;;41.90;30.80;;;;;;4871672;29;19912;-84
2023/11/15 10:10:34;;;;;;;4.07;0.70;;;36.10;37.50;;;;;;4867523;29;20033;-83
2023/11/15 10:13:00;;;;;;;2.10;0.43;;;;;;;;;;4872566;29;20033;-85
2023/11/15 10:15:39;;;;;;;3.60;0.40;;;;;;;;;;4870260;29;20265;-89
2023/11/15 10:18:08;;;;;;;4.32;0.63;;;;;;;;;;4871490;29;20414;-84
2023/11/15 10:20:34;;;;;;;2.70;1.02;;;;;;;;;;4867030;29;20096;-84
2023/11/15 10:23:00;;;;;;;6.32;0.93;;;;;;;;;;4872555;29;20181;-80
2023/11/15 10:25:26;;;;;;;6.25;0.80;;;;;;;;;;4871758;29;20033;-80
2023/11/15 10:28:03;;;;;;;5.35;1.40;;;19.00;53.30;;;;;;4871716;29;20471;-83
2023/11/15 10:30:29;;;;;;;2.42;0.85;;;;;;;;;;4866070;29;20057;-83
2023/11/15 10:33:11;;;;;;;6.03;1.42;;;16.80;71.40;;;;;;4872766;29;20395;-82
2023/11/15 10:35:38;;;;;;;7.97;1.40;;;16.60;58.30;;;;;;4869815;29;20025;-84
2023/11/15 10:38:04;;;;;;;2.63;0.87;;;;;;;;;;4871161;29;20522;-83
2023/11/15 10:40:30;;;;;;;1.95;1.25;;;;;;;;;;4866666;29;20771;-82
2023/11/15 10:43:01;;;;;;;4.73;0.93;;;15.60;60.50;;;;;;4872239;29;20041;-81
2023/11/15 10:45:30;;;;;;;3.53;0.82;;;15.40;60.80;;;;;;4871511;29;20024;-82
2023/11/15 10:47:58;;;;;;;4.13;1.08;;;15.10;61.20;;;;;;4871089;29;20538;-82
2023/11/15 10:50:26;;;;;;;1.75;1.02;;;14.90;61.80;;;;;;4865857;29;20917;-83
2023/11/15 10:52:53;;;;;;;4.22;0.85;;;18.80;64.40;;;;;;4871857;29;20054;-84
2023/11/15 10:55:19;;;;;;;4.78;1.17;;;;;;;;;;4872088;29;20032;-85
2023/11/15 10:57:46;;;;;;;1.88;1.00;;;14.30;63.40;;;;;;4874281;29;20033;-81
2023/11/15 11:00:20;;;;;;;5.40;2.03;;;14.10;64.20;;;;;;4873090;29;20090;-82
2023/11/15 11:02:49;;;;;;;5.32;3.05;;;;;;;;;;4874742;29;20063;-82
2023/11/15 11:05:40;;;;;;;8.20;1.30;;;14.20;64.50;;;;;;4876946;29;20033;-81
2023/11/15 11:08:14;;;;;;;2.28;1.30;;;14.30;64.30;;;;;;4790678;29;20571;-85
2023/11/15 11:10:48;;;;;;;5.70;1.17;;;;;;;;;;4779982;29;20035;-80
2023/11/15 11:13:40;;;;;;;5.55;1.00;;;;;;;;;;4789143;29;20066;-81
2023/11/15 11:16:39;;;;;;;6.20;1.35;;;;;;;;;;4785894;29;20042;-80
2023/11/15 11:19:25;;;;;;;3.08;1.20;;;;;;;;;;4788282;29;20047;-81
2023/11/15 11:22:11;;;;;;;3.88;0.80;;;;;;;;;;4796871;29;20042;-83
2023/11/15 11:24:48;;;;;;;2.22;0.77;;;15.40;63.10;;;;;;4796036;29;20074;-80
2023/11/15 11:27:14;;;;;;;15.82;1.55;;;;;;;;;;4803241;29;20042;-80
2023/11/15 11:29:49;;;;;;;1.63;1.30;;;16.00;61.40;;;;;;4795359;29;20486;-81
2023/11/15 11:32:19;;;;;;;3.10;1.10;;;16.50;61.20;;;;;;4789475;29;20097;-80
2023/11/15 11:35:00;;;;;;;6.57;1.40;;;16.80;59.70;;;;;;4798160;29;20209;-80
2023/11/15 11:37:47;;;;;;;2.83;1.75;;;16.80;64.90;;;;;;4782986;29;20043;-80
2023/11/15 11:40:15;;;;;;;4.28;0.80;;;17.00;56.80;;;;;;4786663;29;20031;-80
2023/11/15 11:42:43;;;;;;;1.67;1.20;;;16.80;58.10;;;;;;4787094;29;20031;-81
2023/11/15 11:45:11;;;;;;;3.95;0.98;;;16.60;57.60;;;;;;4830356;29;20052;-81
2023/11/15 11:47:41;;;;;;;1.25;0.95;;;16.30;58.00;;;;;;4872175;29;20029;-81
2023/11/15 11:50:07;;;;;;;2.58;0.80;;;;;;;;;;4869885;29;20603;-81
2023/11/15 11:52:39;;;;;;;2.03;0.90;;;15.80;58.80;;;;;;4872389;29;20025;-80
2023/11/15 11:55:06;;;;;;;3.35;1.10;;;16.20;60.30;;;;;;4873141;29;20041;-81
2023/11/15 11:57:33;;;;;;;1.23;1.13;;;;;;;;;;4872558;29;20028;-81
2023/11/15 12:00:16;;;;;;;1.35;1.13;;;17.20;63.30;;;;;;4871166;29;20060;-81
2023/11/15 12:02:43;;;;;;;1.75;0.70;;;17.00;57.30;;;;;;4872895;29;20029;-82
2023/11/15 12:05:13;;;;;;;1.10;0.80;;;16.90;56.90;;;;;;4874267;29;20033;-83
2023/11/15 12:07:43;;;;;;;7.47;0.85;;;17.40;57.60;;;;;;4856137;29;20040;-83
2023/11/15 12:10:13;;;;;;;5.53;0.85;;;17.00;56.90;;;;;;4864996;29;20703;-85
2023/11/15 12:12:41;;;;;;;0.88;0.82;;;16.90;57.00;;;;;;4872377;29;20044;-82
2023/11/15 12:15:13;;;;;;;7.75;1.13;;;16.80;69.80;;;;;;4873837;29;20562;-82
2023/11/15 12:17:44;;;;;;;4.18;0.73;;;16.50;56.00;;;;;;4873886;29;20040;-83
2023/11/15 12:20:11;;;;;;;2.67;0.98;;;16.50;56.90;;;;;;4871955;29;20040;-89
2023/11/15 12:22:38;;;;;;;2.85;1.05;;;16.70;72.10;;;;;;4872522;29;20029;-87
2023/11/15 12:25:13;;;;;;;1.10;0.70;;;16.60;56.70;;;;;;4875089;29;20617;-88
2023/11/15 12:27:39;;;;;;;8.48;1.90;;;;;;;;;;4856897;29;20032;-88
2023/11/15 12:30:07;;;;;;;1.90;0.90;;;17.90;70.80;;;;;;4806095;29;1966663;-92
2023/11/15 12:32:38;;;;;;;1.13;0.80;;;18.30;69.00;;;;;;4858722;29;20491;-86
2023/11/15 12:35:09;;;;;;;2.10;0.90;;;17.90;55.80;;;;;;4874983;29;20060;-85
2023/11/15 12:37:35;;;;;;;3.03;1.05;;;17.40;53.90;;;;;;4871507;29;20070;-81
2023/11/15 12:40:17;;;;;;;3.75;1.20;;;17.10;54.70;;;;;;4868668;29;20036;-87
2023/11/15 12:42:43;;;;;;;2.30;0.77;;;16.60;69.90;;;;;;4868852;29;20036;-84
2023/11/15 12:45:33;;;;;;;5.35;0.90;;;16.40;55.90;;;;;;4873205;29;20052;-85
2023/11/15 12:48:07;;;;;;;1.98;1.27;;;16.40;56.30;;;;;;4873846;29;20017;-78
2023/11/15 12:50:34;;;;;;;2.70;1.48;;;;;;;;;;4869225;29;20048;-89
2023/11/15 12:53:05;;;;;;;;;;;17.00;56.10;;;;;;4874075;29;20037;-89
2023/11/15 12:55:36;;;;;;;2.58;1.27;;;17.80;69.40;;;;;;4874378;29;19912;-91
2023/11/15 12:58:02;;;;;;;4.38;1.75;;;;;;;;;;4874562;29;20064;-81
2023/11/15 13:00:31;;;;;;;1.25;1.15;;;18.80;58.90;;;;;;4869481;29;20486;-81
2023/11/15 13:02:57;;;;;;;1.27;0.80;;;;;;;;;;4874082;29;20057;-81
2023/11/15 13:05:27;;;;;;;1.15;1.05;;;19.50;53.30;;;;;;4873886;29;20484;-80
2023/11/15 13:07:53;;;;;;;9.77;1.02;;;;;;;;;;4873406;29;20037;-80
2023/11/15 13:10:19;;;;;;;1.55;0.50;;;;;;;;;;4869811;29;20151;-86
2023/11/15 13:12:45;;;;;;;4.35;0.93;;;;;;;;;;4873181;29;20487;-84
2023/11/15 13:15:17;;;;;;;4.72;0.70;;;;;;;;;;4873503;29;20032;-84
2023/11/15 13:17:44;;;;;;;2.97;0.52;;;17.20;68.80;;;;;;4874545;29;20033;-85
2023/11/15 13:20:11;;;;;;;2.08;0.80;;;16.40;55.40;;;;;;4871620;29;20045;-85
2023/11/15 13:22:38;;;;;;;3.70;0.85;;;;;;;;;;4870320;29;20025;-85
2023/11/15 13:25:08;;;;;;;15.07;1.92;;;15.70;72.90;;;;;;4872332;29;20045;-84
2023/11/15 13:27:34;;;;;;;3.88;1.52;;;;;;;;;;4872911;29;20443;-84
2023/11/15 13:30:00;;;;;;;3.83;1.10;;;;;;;;;;4872094;29;21841;-90
2023/11/15 13:32:26;;;;;;;2.13;1.10;;;;;;;;;;4871430;29;20055;-86
2023/11/15 13:34:59;;;;;;;4.15;1.25;;;;;;;;;;4874222;29;20498;-84
2023/11/15 13:37:25;;;;;;;4.63;1.15;;;;;;;;;;4855473;29;20112;-85
2023/11/15 13:39:51;;;;;;;1.67;0.70;;;;;;;;;;4870952;29;20028;-88
2023/11/15 13:42:16;;;;;;;2.47;0.85;;;15.90;66.20;;;;;;4870582;29;20494;-83
2023/11/15 13:44:42;;;;;;;2.83;0.82;;;;;;;;;;4870484;29;20040;-85
2023/11/15 13:47:08;;;;;;;6.32;1.27;;;;;;;;;;4873982;29;20410;-90
2023/11/15 13:49:34;;;;;;;5.63;1.02;;;;;;;;;;4873601;29;20056;-88
2023/11/15 13:52:00;;;;;;;4.47;1.20;;;15.70;74.30;;;;;;4853057;29;20061;-87
2023/11/15 13:54:26;;;;;;;2.42;1.10;;;15.30;73.60;;;;;;4873422;29;20064;-87
2023/11/15 13:56:52;;;;;;;2.22;0.70;;;;;;;;;;4873351;29;20044;-87
2023/11/15 13:59:19;;;;;;;4.50;0.85;;;;;;;;;;4871545;29;20032;-86
2023/11/15 14:01:44;;;;;;;3.22;0.75;;;15.50;61.90;;;;;;4871496;29;20063;-90
2023/11/15 14:04:10;;;;;;;6.45;1.15;;;15.60;63.80;;;;;;4871899;29;20495;-90
2023/11/15 14:06:36;;;;;;;6.95;0.70;;;;;;;;;;4857765;29;20028;-88
2023/11/15 14:09:06;;;;;;;1.02;0.70;;;;;;;;;;4874126;29;20072;-88